Time;durP1;ratioP1;P1;durP2;ratioP2;P2;SDS_P1;SDS_P2;PMS_P1;PMS_P2;Temp;Humidity;BMP_temperature;BMP_pressure;BME280_temperature;BME280_humidity;BME280_pressure;Samples;Min_cycle;Max_cycle;Signal;HPM_P1;HPM_P2
2023/06/25 00:01:31;;;;;;;3.13;2.50;;;27.60;46.90;;;;;;5041388;28;20025;-65
2023/06/25 00:03:57;;;;;;;3.03;2.72;;;27.60;46.90;;;;;;5023157;28;20075;-64
2023/06/25 00:06:23;;;;;;;2.70;2.40;;;27.60;47.00;;;;;;5039919;28;20120;-64
2023/06/25 00:08:49;;;;;;;3.28;2.70;;;27.60;47.00;;;;;;5042024;28;20052;-63
2023/06/25 00:11:15;;;;;;;3.00;2.60;;;27.60;47.00;;;;;;5040913;28;20056;-65
2023/06/25 00:13:41;;;;;;;2.85;2.55;;;27.60;47.10;;;;;;5018993;28;20039;-65
2023/06/25 00:16:07;;;;;;;3.65;2.83;;;27.60;47.10;;;;;;5041022;28;20033;-65
2023/06/25 00:18:34;;;;;;;3.50;2.72;;;27.60;47.10;;;;;;5039324;28;20033;-64
2023/06/25 00:21:01;;;;;;;3.13;2.83;;;27.60;47.10;;;;;;5041698;28;20025;-66
2023/06/25 00:23:27;;;;;;;3.15;2.83;;;27.60;47.20;;;;;;5047515;28;20432;-65
2023/06/25 00:25:53;;;;;;;3.95;2.97;;;27.60;47.20;;;;;;5044736;28;20190;-65
2023/06/25 00:28:19;;;;;;;2.97;2.60;;;27.50;47.10;;;;;;5024870;28;20188;-63
2023/06/25 00:30:45;;;;;;;3.58;3.05;;;27.50;47.20;;;;;;5045366;28;20029;-65
2023/06/25 00:33:11;;;;;;;3.40;3.10;;;27.50;47.20;;;;;;5025833;28;20055;-63
2023/06/25 00:35:50;;;;;;;2.92;2.63;;;27.50;47.20;;;;;;5026905;28;20033;-65
2023/06/25 00:38:16;;;;;;;3.30;2.92;;;27.50;47.20;;;;;;5041989;28;20039;-64
2023/06/25 00:40:42;;;;;;;4.00;2.90;;;27.50;47.30;;;;;;5046107;28;20159;-65
2023/06/25 00:43:08;;;;;;;3.20;2.88;;;27.50;47.30;;;;;;5028013;28;20097;-65
2023/06/25 00:45:35;;;;;;;3.03;2.72;;;27.50;47.40;;;;;;5011687;28;20025;-64
2023/06/25 00:48:02;;;;;;;3.90;2.97;;;27.50;47.40;;;;;;5042791;28;20294;-65
2023/06/25 00:50:28;;;;;;;3.53;3.03;;;27.50;47.40;;;;;;5022655;28;20086;-64
2023/06/25 00:52:57;;;;;;;3.63;3.13;;;27.50;47.50;;;;;;5046950;28;20127;-66
2023/06/25 00:55:25;;;;;;;3.63;2.65;;;27.50;47.50;;;;;;5020275;28;20398;-66
2023/06/25 00:57:52;;;;;;;3.33;3.00;;;27.40;47.50;;;;;;5044128;28;20036;-65
2023/06/25 01:00:19;;;;;;;4.10;2.83;;;27.50;47.60;;;;;;5023873;28;20068;-64
2023/06/25 01:03:00;;;;;;;2.90;2.55;;;27.50;47.70;;;;;;5040662;28;20436;-65
2023/06/25 01:05:39;;;;;;;5.00;3.25;;;27.50;47.70;;;;;;5024589;28;20029;-64
2023/06/25 01:08:11;;;;;;;4.25;3.33;;;27.40;47.70;;;;;;5020030;28;20508;-64
2023/06/25 01:10:38;;;;;;;3.78;3.00;;;27.40;47.70;;;;;;5027651;28;20048;-64
2023/06/25 01:13:05;;;;;;;4.88;3.03;;;27.40;47.70;;;;;;5011485;28;20029;-65
2023/06/25 01:15:32;;;;;;;3.97;2.90;;;27.40;47.80;;;;;;5045003;28;20029;-64
2023/06/25 01:17:59;;;;;;;3.75;3.30;;;27.40;47.80;;;;;;5040344;28;20048;-66
2023/06/25 01:20:27;;;;;;;3.70;2.88;;;27.40;47.90;;;;;;5045776;28;20064;-65
2023/06/25 01:22:57;;;;;;;3.13;2.83;;;27.40;47.90;;;;;;5023207;28;20049;-65
2023/06/25 01:25:24;;;;;;;4.20;3.08;;;27.40;48.00;;;;;;5043623;28;20131;-63
2023/06/25 01:27:50;;;;;;;3.42;2.75;;;27.40;48.00;;;;;;5024568;28;20105;-63
2023/06/25 01:30:18;;;;;;;3.10;2.78;;;27.40;48.10;;;;;;5024491;28;20025;-64
2023/06/25 01:32:44;;;;;;;3.40;3.10;;;27.40;48.10;;;;;;5025205;28;20483;-64
2023/06/25 01:35:15;;;;;;;3.45;2.97;;;27.40;48.10;;;;;;5043204;28;20025;-65
2023/06/25 01:37:41;;;;;;;3.35;3.05;;;27.40;48.10;;;;;;5027023;28;20025;-65
2023/06/25 01:40:10;;;;;;;3.08;2.78;;;27.40;48.20;;;;;;5045866;28;20033;-64
2023/06/25 01:42:36;;;;;;;3.97;3.10;;;27.40;48.20;;;;;;5041143;28;20037;-64
2023/06/25 01:45:03;;;;;;;3.58;2.90;;;27.40;48.30;;;;;;5024948;28;20055;-64
2023/06/25 01:47:28;;;;;;;3.92;3.08;;;27.40;48.30;;;;;;5023879;28;20057;-66
2023/06/25 01:49:54;;;;;;;6.05;2.80;;;27.30;48.30;;;;;;5022667;28;20172;-65
2023/06/25 01:52:20;;;;;;;3.50;2.85;;;27.40;48.40;;;;;;5026084;28;20033;-64
2023/06/25 01:54:46;;;;;;;2.88;2.55;;;27.40;48.40;;;;;;5040537;28;20049;-65
2023/06/25 01:57:14;;;;;;;3.25;2.95;;;27.40;48.40;;;;;;5019529;28;20089;-65
2023/06/25 01:59:40;;;;;;;3.20;2.55;;;27.30;48.40;;;;;;5024636;28;20131;-66
2023/06/25 02:02:06;;;;;;;3.33;2.92;;;27.30;48.40;;;;;;5024310;28;20033;-64
2023/06/25 02:04:32;;;;;;;3.63;3.15;;;27.40;48.50;;;;;;5028090;28;20102;-63
2023/06/25 02:06:58;;;;;;;3.72;3.05;;;27.30;48.50;;;;;;5021750;28;20048;-65
2023/06/25 02:09:25;;;;;;;4.05;3.13;;;27.30;48.60;;;;;;5038758;28;20041;-66
2023/06/25 02:11:51;;;;;;;3.30;2.92;;;27.30;48.60;;;;;;5017790;28;20029;-65
2023/06/25 02:14:17;;;;;;;3.45;2.92;;;27.30;48.60;;;;;;5027839;28;20040;-65
2023/06/25 02:16:43;;;;;;;4.47;3.60;;;27.30;48.60;;;;;;5015427;28;20469;-64
2023/06/25 02:19:10;;;;;;;4.60;3.00;;;27.30;48.60;;;;;;5023328;28;20424;-64
2023/06/25 02:21:36;;;;;;;3.97;3.00;;;27.30;48.60;;;;;;5027899;28;20033;-64
2023/06/25 02:24:05;;;;;;;4.10;3.20;;;27.30;48.70;;;;;;5017292;28;20050;-64
2023/06/25 02:26:31;;;;;;;3.47;2.83;;;27.30;48.70;;;;;;5041211;28;20073;-65
2023/06/25 02:28:57;;;;;;;4.20;3.38;;;27.30;48.70;;;;;;5042368;28;20036;-65
2023/06/25 02:31:24;;;;;;;2.92;2.67;;;27.20;48.60;;;;;;5041763;28;20356;-64
2023/06/25 02:33:50;;;;;;;3.70;2.85;;;27.30;48.70;;;;;;5041139;28;20021;-64
2023/06/25 02:36:16;;;;;;;2.72;2.53;;;27.30;48.70;;;;;;5041352;28;20147;-65
2023/06/25 02:38:42;;;;;;;3.70;3.28;;;27.20;48.60;;;;;;5042339;28;20329;-64
2023/06/25 02:41:08;;;;;;;3.40;3.00;;;27.30;48.70;;;;;;5041144;28;20025;-65
2023/06/25 02:43:34;;;;;;;3.28;2.97;;;27.20;48.60;;;;;;5041394;28;20048;-65
2023/06/25 02:46:00;;;;;;;3.22;2.90;;;27.20;48.60;;;;;;5042224;28;20025;-64
2023/06/25 02:48:26;;;;;;;3.40;3.10;;;27.20;48.60;;;;;;5023794;28;20165;-64
2023/06/25 02:50:52;;;;;;;3.28;2.97;;;27.20;48.60;;;;;;5018908;28;20247;-63
2023/06/25 02:53:18;;;;;;;6.03;3.25;;;27.20;48.60;;;;;;5024287;28;20328;-66
2023/06/25 02:55:44;;;;;;;3.80;3.08;;;27.20;48.70;;;;;;5023191;28;20031;-63
2023/06/25 02:58:10;;;;;;;3.88;3.47;;;27.20;48.70;;;;;;5041201;28;20048;-63
2023/06/25 03:00:36;;;;;;;3.03;2.75;;;27.20;48.70;;;;;;5016998;28;20413;-67
2023/06/25 03:03:02;;;;;;;3.67;3.13;;;27.20;48.70;;;;;;5026845;28;20086;-65
2023/06/25 03:05:29;;;;;;;4.13;3.25;;;27.20;48.80;;;;;;5019440;28;20299;-63
2023/06/25 03:07:57;;;;;;;4.05;3.22;;;27.20;48.90;;;;;;5020599;28;20034;-66
2023/06/25 03:10:27;;;;;;;3.30;3.00;;;27.10;48.70;;;;;;5031495;28;20228;-64
2023/06/25 03:12:54;;;;;;;3.60;2.83;;;27.20;48.70;;;;;;5021329;28;20075;-65
2023/06/25 03:15:20;;;;;;;5.25;3.33;;;27.20;48.70;;;;;;5024224;28;20127;-64
2023/06/25 03:17:46;;;;;;;3.15;2.70;;;27.20;48.80;;;;;;5036343;28;20167;-64
2023/06/25 03:20:13;;;;;;;3.30;3.00;;;27.10;48.70;;;;;;5015869;28;20065;-66
2023/06/25 03:22:40;;;;;;;3.40;3.00;;;27.10;48.70;;;;;;5012982;28;20115;-67
2023/06/25 03:25:08;;;;;;;3.40;3.05;;;27.10;48.70;;;;;;5038416;28;20021;-65
2023/06/25 03:27:36;;;;;;;3.45;2.70;;;27.10;48.70;;;;;;5022922;28;20086;-64
2023/06/25 03:30:03;;;;;;;4.15;3.28;;;27.10;48.80;;;;;;5041279;28;20037;-63
2023/06/25 03:32:30;;;;;;;3.80;2.85;;;27.10;48.70;;;;;;5042109;28;20017;-65
2023/06/25 03:34:56;;;;;;;3.90;3.13;;;27.10;48.70;;;;;;5016091;28;20025;-64
2023/06/25 03:37:23;;;;;;;3.85;3.35;;;27.10;48.70;;;;;;5022698;28;20083;-64
2023/06/25 03:39:49;;;;;;;3.22;2.92;;;27.10;48.70;;;;;;5015218;28;20493;-64
2023/06/25 03:42:15;;;;;;;3.20;2.90;;;27.10;48.60;;;;;;5040658;28;20029;-65
2023/06/25 03:44:54;;;;;;;3.65;3.22;;;27.10;48.70;;;;;;5014009;28;20124;-64
2023/06/25 03:47:24;;;;;;;3.40;3.00;;;27.10;48.70;;;;;;5019802;28;20471;-65
2023/06/25 03:49:50;;;;;;;3.80;3.40;;;27.10;48.70;;;;;;5014924;28;20432;-66
2023/06/25 03:52:16;;;;;;;4.03;3.10;;;27.10;48.70;;;;;;5016990;28;20153;-65
2023/06/25 03:54:43;;;;;;;5.72;3.00;;;27.10;48.80;;;;;;5044624;28;20105;-64
2023/06/25 03:57:09;;;;;;;3.50;3.10;;;27.10;48.70;;;;;;5011191;28;20028;-64
2023/06/25 03:59:35;;;;;;;3.22;2.92;;;27.10;48.70;;;;;;5046042;28;20033;-63
2023/06/25 04:02:01;;;;;;;3.40;3.10;;;27.10;48.70;;;;;;5022464;28;20068;-66
2023/06/25 04:04:27;;;;;;;5.47;3.28;;;27.10;48.80;;;;;;5019112;28;20021;-65
2023/06/25 04:06:53;;;;;;;3.50;3.15;;;27.10;48.80;;;;;;5043115;28;20053;-65
2023/06/25 04:09:20;;;;;;;5.35;3.20;;;27.10;48.80;;;;;;5024296;28;20068;-65
2023/06/25 04:11:46;;;;;;;3.47;2.95;;;27.10;48.80;;;;;;5012996;28;20041;-65
2023/06/25 04:14:13;;;;;;;3.50;2.90;;;27.10;48.80;;;;;;5020929;28;20029;-63
2023/06/25 04:16:39;;;;;;;3.53;2.80;;;27.10;48.70;;;;;;5045019;28;20096;-66
2023/06/25 04:19:05;;;;;;;5.10;3.05;;;27.10;48.70;;;;;;5020137;28;20037;-64
2023/06/25 04:21:31;;;;;;;4.55;3.20;;;27.10;48.70;;;;;;5020675;28;20032;-63
2023/06/25 04:23:57;;;;;;;3.83;3.42;;;27.10;48.70;;;;;;5043879;28;20373;-65
2023/06/25 04:26:23;;;;;;;3.53;2.67;;;27.10;48.80;;;;;;5020095;28;20128;-65
2023/06/25 04:28:49;;;;;;;5.28;3.08;;;27.10;49.40;;;;;;5025390;28;20036;-63
2023/06/25 04:31:16;;;;;;;3.75;3.17;;;27.10;48.70;;;;;;5026734;28;20021;-63
2023/06/25 04:33:42;;;;;;;3.58;3.00;;;27.10;48.70;;;;;;5020794;28;20380;-66
2023/06/25 04:36:10;;;;;;;3.17;2.88;;;27.10;48.70;;;;;;5026391;28;20032;-66
2023/06/25 04:38:37;;;;;;;3.47;2.70;;;27.10;48.70;;;;;;5022108;28;20067;-64
2023/06/25 04:41:03;;;;;;;3.53;2.80;;;27.10;48.70;;;;;;5020587;28;21556;-64
2023/06/25 04:43:29;;;;;;;4.32;3.10;;;27.10;48.80;;;;;;5024899;28;20121;-67
2023/06/25 04:45:58;;;;;;;3.10;2.80;;;27.10;48.80;;;;;;5021001;28;20362;-66
2023/06/25 04:48:24;;;;;;;3.30;2.95;;;27.10;48.80;;;;;;5015493;28;20072;-63
2023/06/25 04:50:50;;;;;;;3.03;2.72;;;27.10;48.80;;;;;;5023696;28;20085;-66
2023/06/25 04:53:16;;;;;;;3.50;3.20;;;27.10;48.90;;;;;;5024297;28;20495;-64
2023/06/25 04:55:41;;;;;;;3.05;2.72;;;27.10;48.80;;;;;;5015879;28;20089;-66
2023/06/25 04:58:07;;;;;;;3.58;2.80;;;27.10;48.80;;;;;;5024647;28;20049;-64
2023/06/25 05:00:33;;;;;;;3.47;3.17;;;27.10;48.80;;;;;;5025926;28;20045;-64
2023/06/25 05:02:59;;;;;;;3.53;2.95;;;27.10;48.80;;;;;;5022512;28;20089;-64
2023/06/25 05:05:25;;;;;;;3.17;2.88;;;27.10;48.80;;;;;;5014011;28;20385;-64
2023/06/25 05:07:51;;;;;;;3.25;2.95;;;27.10;48.80;;;;;;5021537;28;20033;-66
2023/06/25 05:10:19;;;;;;;3.60;2.97;;;27.10;48.80;;;;;;5023450;28;20030;-64
2023/06/25 05:12:45;;;;;;;3.55;2.85;;;27.10;48.80;;;;;;5022719;28;20412;-68
2023/06/25 05:15:11;;;;;;;3.40;2.70;;;27.10;48.80;;;;;;5023774;28;20072;-64
2023/06/25 05:17:36;;;;;;;3.40;3.10;;;27.10;48.80;;;;;;5020978;28;20068;-67
2023/06/25 05:20:03;;;;;;;3.90;2.95;;;27.00;48.80;;;;;;5022419;28;20034;-66
2023/06/25 05:22:28;;;;;;;3.72;2.90;;;27.00;48.80;;;;;;5024896;28;20424;-65
2023/06/25 05:24:54;;;;;;;3.30;2.90;;;27.00;48.80;;;;;;5024383;28;20124;-66
2023/06/25 05:27:20;;;;;;;4.47;3.22;;;27.10;48.90;;;;;;5014867;28;20049;-64
2023/06/25 05:29:46;;;;;;;3.55;2.92;;;27.10;48.90;;;;;;5017563;28;20112;-66
2023/06/25 05:32:12;;;;;;;3.20;2.90;;;27.10;48.90;;;;;;5025524;28;20374;-64
2023/06/25 05:34:38;;;;;;;4.45;3.40;;;27.10;48.90;;;;;;5022093;28;20045;-63
2023/06/25 05:37:04;;;;;;;3.15;2.85;;;27.00;48.80;;;;;;5023568;28;20052;-64
2023/06/25 05:39:30;;;;;;;3.47;3.08;;;27.10;48.80;;;;;;5023287;28;20080;-66
2023/06/25 05:41:59;;;;;;;3.80;3.17;;;27.10;48.80;;;;;;5014177;28;20386;-66
2023/06/25 05:44:25;;;;;;;3.58;3.28;;;27.10;48.80;;;;;;5036172;28;20262;-67
2023/06/25 05:46:51;;;;;;;3.28;2.97;;;27.10;48.80;;;;;;5045267;28;20360;-63
2023/06/25 05:49:17;;;;;;;3.58;2.90;;;27.00;48.70;;;;;;5042985;28;20025;-66
2023/06/25 05:51:43;;;;;;;3.08;2.78;;;27.10;48.80;;;;;;5040269;28;20036;-66
2023/06/25 05:54:09;;;;;;;3.58;3.17;;;27.00;48.70;;;;;;5027046;28;20052;-64
2023/06/25 05:56:35;;;;;;;3.70;2.83;;;27.00;48.70;;;;;;5042985;28;20052;-66
2023/06/25 05:59:01;;;;;;;3.67;2.97;;;27.00;48.60;;;;;;5042929;28;20118;-63
2023/06/25 06:01:27;;;;;;;3.58;3.08;;;27.00;48.60;;;;;;5042648;28;20408;-65
2023/06/25 06:03:53;;;;;;;3.92;3.40;;;27.00;48.60;;;;;;5018418;28;20029;-63
2023/06/25 06:06:19;;;;;;;3.25;2.85;;;27.00;48.60;;;;;;5043921;28;20394;-64
2023/06/25 06:08:45;;;;;;;3.15;2.60;;;27.00;48.60;;;;;;5041967;28;20076;-65
2023/06/25 06:11:10;;;;;;;3.92;3.03;;;27.00;48.50;;;;;;5042617;28;20021;-66
2023/06/25 06:13:37;;;;;;;3.33;2.95;;;27.00;48.50;;;;;;5023161;28;20389;-66
2023/06/25 06:16:03;;;;;;;3.45;3.00;;;27.00;48.50;;;;;;5041995;28;20044;-66
2023/06/25 06:18:29;;;;;;;3.50;3.17;;;27.00;48.40;;;;;;5035013;28;20370;-65
2023/06/25 06:20:55;;;;;;;4.25;3.00;;;27.00;48.30;;;;;;5036785;28;20024;-66
2023/06/25 06:23:21;;;;;;;3.92;3.17;;;27.00;48.30;;;;;;5041711;28;20298;-64
2023/06/25 06:25:46;;;;;;;3.17;2.80;;;27.00;48.20;;;;;;5042807;28;20380;-65
2023/06/25 06:28:12;;;;;;;3.40;2.90;;;27.00;48.20;;;;;;5042708;28;20116;-65
2023/06/25 06:30:38;;;;;;;3.28;2.95;;;27.00;48.10;;;;;;5045284;28;20021;-66
2023/06/25 06:33:04;;;;;;;3.00;2.65;;;27.00;48.10;;;;;;5042046;28;20037;-66
2023/06/25 06:35:30;;;;;;;5.32;3.97;;;27.00;48.10;;;;;;5042121;28;20083;-64
2023/06/25 06:37:56;;;;;;;3.50;2.75;;;27.00;48.00;;;;;;5044820;28;20033;-63
2023/06/25 06:40:21;;;;;;;3.00;2.67;;;27.00;48.00;;;;;;5041694;28;20068;-63
2023/06/25 06:42:47;;;;;;;2.88;2.63;;;27.00;47.90;;;;;;5043486;28;20092;-67
2023/06/25 06:45:13;;;;;;;3.42;2.70;;;27.00;47.90;;;;;;5044654;28;20048;-65
2023/06/25 06:47:39;;;;;;;3.75;2.60;;;27.00;47.90;;;;;;5044574;28;20035;-64
2023/06/25 06:50:06;;;;;;;5.13;3.50;;;27.00;47.90;;;;;;5021153;28;20028;-65
2023/06/25 06:52:32;;;;;;;6.38;3.78;;;27.00;47.90;;;;;;5039632;28;20063;-65
2023/06/25 06:54:58;;;;;;;7.57;4.38;;;27.00;47.80;;;;;;5044468;28;20135;-64
2023/06/25 06:57:24;;;;;;;6.68;3.92;;;27.00;47.80;;;;;;5042801;28;20056;-65
2023/06/25 06:59:50;;;;;;;7.40;3.80;;;27.00;47.90;;;;;;5037340;28;20120;-66
2023/06/25 07:02:15;;;;;;;6.82;3.70;;;27.00;47.80;;;;;;5035938;28;20044;-64
2023/06/25 07:04:41;;;;;;;4.95;3.85;;;27.00;47.80;;;;;;5039958;28;20196;-65
2023/06/25 07:07:08;;;;;;;4.28;3.65;;;27.00;47.80;;;;;;5040384;28;20679;-66
2023/06/25 07:09:34;;;;;;;4.78;3.47;;;27.00;47.80;;;;;;5019512;28;20047;-67
2023/06/25 07:12:00;;;;;;;5.43;3.90;;;27.00;47.80;;;;;;5038360;28;20032;-65
2023/06/25 07:14:26;;;;;;;5.38;4.20;;;27.00;47.80;;;;;;5019988;28;20402;-65
2023/06/25 07:16:52;;;;;;;4.40;3.97;;;27.00;47.80;;;;;;5038002;28;20392;-66
2023/06/25 07:19:18;;;;;;;5.68;4.00;;;27.00;47.90;;;;;;5049279;28;20144;-69
2023/06/25 07:21:43;;;;;;;6.85;4.18;;;27.00;47.90;;;;;;5050252;28;20428;-66
2023/06/25 07:24:09;;;;;;;6.60;3.60;;;27.00;47.90;;;;;;5050356;28;20047;-68
2023/06/25 07:26:35;;;;;;;5.15;4.07;;;27.00;48.50;;;;;;5020812;28;20043;-66
2023/06/25 07:29:01;;;;;;;5.70;3.60;;;27.00;47.90;;;;;;5038924;28;20360;-64
2023/06/25 07:31:27;;;;;;;5.97;3.90;;;27.00;47.90;;;;;;5041359;28;20116;-65
2023/06/25 07:33:53;;;;;;;5.22;3.92;;;27.10;48.10;;;;;;5036821;28;20051;-66
2023/06/25 07:36:19;;;;;;;6.05;4.47;;;27.00;48.00;;;;;;5041784;28;20039;-65
2023/06/25 07:38:45;;;;;;;6.28;4.70;;;27.10;48.10;;;;;;5041206;28;20039;-66
2023/06/25 07:41:11;;;;;;;6.53;4.55;;;27.10;48.20;;;;;;5040671;28;20017;-68
2023/06/25 07:43:36;;;;;;;5.38;3.97;;;27.10;48.20;;;;;;5018135;28;20098;-65
2023/06/25 07:46:02;;;;;;;5.63;4.10;;;27.10;48.30;;;;;;5039139;28;21835;-64
2023/06/25 07:48:28;;;;;;;5.25;4.25;;;27.10;48.30;;;;;;5039618;28;20037;-64
2023/06/25 07:50:54;;;;;;;7.88;4.50;;;27.10;48.40;;;;;;5040807;28;20184;-67
2023/06/25 07:53:20;;;;;;;5.70;3.75;;;27.10;48.40;;;;;;5025571;28;20332;-68
2023/06/25 07:55:48;;;;;;;5.97;4.40;;;27.10;48.40;;;;;;5040338;28;20041;-64
2023/06/25 07:58:14;;;;;;;7.13;4.55;;;27.10;48.40;;;;;;5040377;28;20033;-64
2023/06/25 08:00:40;;;;;;;5.28;4.03;;;27.10;48.50;;;;;;5041069;28;20077;-64
2023/06/25 08:03:06;;;;;;;5.75;4.50;;;27.10;48.40;;;;;;5042143;28;20029;-63
2023/06/25 08:05:32;;;;;;;6.57;4.63;;;27.10;48.40;;;;;;5015932;28;20048;-64
2023/06/25 08:07:58;;;;;;;8.43;5.22;;;27.10;48.40;;;;;;5037979;28;20100;-65
2023/06/25 08:10:24;;;;;;;5.53;4.45;;;27.10;48.40;;;;;;5021454;28;20033;-65
2023/06/25 08:12:51;;;;;;;5.35;4.40;;;27.10;48.40;;;;;;5035736;28;20109;-63
2023/06/25 08:15:17;;;;;;;5.88;4.00;;;27.10;48.40;;;;;;5036459;28;20036;-65
2023/06/25 08:17:50;;;;;;;6.57;4.22;;;27.10;48.30;;;;;;5045262;28;20093;-64
2023/06/25 08:20:16;;;;;;;5.15;4.45;;;27.20;48.30;;;;;;5047396;28;20410;-64
2023/06/25 08:22:41;;;;;;;4.07;3.67;;;27.10;48.10;;;;;;5049510;28;20029;-66
2023/06/25 08:25:19;;;;;;;6.60;4.55;;;27.20;48.10;;;;;;5048762;28;20037;-63
2023/06/25 08:27:45;;;;;;;4.78;3.75;;;27.20;48.00;;;;;;5047820;28;20036;-65
2023/06/25 08:30:11;;;;;;;4.18;3.70;;;27.20;48.00;;;;;;5044818;28;20387;-64
2023/06/25 08:32:37;;;;;;;4.47;3.72;;;27.20;47.90;;;;;;5040546;28;20021;-64
2023/06/25 08:35:03;;;;;;;4.95;3.80;;;27.20;47.80;;;;;;5016557;28;20037;-63
2023/06/25 08:37:29;;;;;;;4.38;3.22;;;27.20;47.70;;;;;;5040689;28;20025;-62
2023/06/25 08:39:55;;;;;;;4.40;3.53;;;27.30;47.60;;;;;;5048255;28;20091;-62
2023/06/25 08:42:21;;;;;;;4.78;3.83;;;27.30;47.50;;;;;;5044115;28;20397;-63
2023/06/25 08:44:47;;;;;;;7.00;3.30;;;27.30;47.40;;;;;;5045610;28;20172;-62
2023/06/25 08:47:23;;;;;;;4.15;3.33;;;27.30;47.30;;;;;;5042047;28;20051;-62
2023/06/25 08:49:50;;;;;;;3.58;3.05;;;27.30;47.10;;;;;;5044413;28;20029;-64
2023/06/25 08:52:20;;;;;;;3.30;3.00;;;27.30;47.00;;;;;;5043048;28;20211;-65
2023/06/25 08:54:46;;;;;;;3.83;2.92;;;27.30;46.80;;;;;;5044603;28;20053;-65
2023/06/25 08:57:13;;;;;;;3.63;3.15;;;27.30;46.70;;;;;;5019687;28;20092;-66
2023/06/25 08:59:39;;;;;;;5.55;3.25;;;27.30;46.60;;;;;;5018586;28;20045;-63
2023/06/25 09:02:05;;;;;;;3.20;2.90;;;27.30;46.50;;;;;;5044298;28;20290;-64
2023/06/25 09:04:30;;;;;;;3.92;2.70;;;27.30;46.40;;;;;;5045191;28;20316;-64
2023/06/25 09:07:07;;;;;;;3.45;2.95;;;27.40;46.40;;;;;;5041102;28;20043;-66
2023/06/25 09:09:33;;;;;;;4.28;3.38;;;27.40;46.30;;;;;;5042733;28;20326;-64
2023/06/25 09:11:59;;;;;;;3.53;2.83;;;27.40;46.20;;;;;;5041653;28;20349;-62
2023/06/25 09:14:26;;;;;;;4.72;2.83;;;27.40;46.20;;;;;;5016733;28;20040;-66
2023/06/25 09:16:54;;;;;;;3.10;2.63;;;27.40;46.10;;;;;;5042489;28;20025;-66
2023/06/25 09:19:21;;;;;;;3.30;2.90;;;27.40;46.00;;;;;;5042929;28;20227;-67
2023/06/25 09:21:48;;;;;;;3.20;2.88;;;27.40;45.90;;;;;;5043754;28;20028;-66
2023/06/25 09:24:21;;;;;;;3.33;2.65;;;27.40;45.80;;;;;;5024208;28;20029;-65
2023/06/25 09:26:52;;;;;;;3.50;2.90;;;27.40;45.70;;;;;;5043388;28;20032;-62
2023/06/25 09:29:19;;;;;;;3.55;2.70;;;27.40;45.60;;;;;;5041795;28;20085;-63
2023/06/25 09:31:46;;;;;;;3.03;2.40;;;27.40;45.60;;;;;;5018603;28;20390;-64
2023/06/25 09:34:14;;;;;;;2.97;2.60;;;27.40;45.60;;;;;;5042472;28;20036;-65
2023/06/25 09:36:40;;;;;;;2.50;2.30;;;27.40;45.60;;;;;;5043621;28;20104;-64
2023/06/25 09:39:08;;;;;;;2.50;2.30;;;27.40;45.50;;;;;;5042251;28;20437;-65
2023/06/25 09:41:35;;;;;;;2.95;2.63;;;27.50;46.20;;;;;;5019157;28;20104;-67
2023/06/25 09:44:05;;;;;;;3.10;2.80;;;27.50;45.60;;;;;;5018512;28;20100;-65
2023/06/25 09:46:36;;;;;;;4.25;3.00;;;27.50;45.50;;;;;;5041604;28;20309;-65
2023/06/25 09:49:03;;;;;;;2.92;2.50;;;27.50;45.50;;;;;;5041370;28;20052;-62
2023/06/25 09:51:43;;;;;;;3.78;2.80;;;27.50;45.50;;;;;;5042129;28;20030;-63
2023/06/25 09:54:11;;;;;;;4.00;2.90;;;27.50;45.50;;;;;;5007360;28;20060;-63
2023/06/25 09:56:38;;;;;;;3.13;2.83;;;27.50;45.50;;;;;;5041564;28;20152;-62
2023/06/25 09:59:05;;;;;;;3.05;2.65;;;27.50;45.50;;;;;;5042734;28;20114;-63
2023/06/25 10:01:31;;;;;;;3.50;2.97;;;27.50;45.50;;;;;;5041616;28;20039;-63
2023/06/25 10:03:57;;;;;;;3.10;2.80;;;27.50;45.50;;;;;;5042209;28;20183;-65
2023/06/25 10:06:23;;;;;;;3.15;2.78;;;27.50;45.50;;;;;;5044901;28;20168;-65
2023/06/25 10:08:50;;;;;;;3.10;2.60;;;27.50;45.60;;;;;;5043783;28;20167;-66
2023/06/25 10:11:16;;;;;;;3.35;2.60;;;27.60;45.60;;;;;;5042666;28;20127;-63
2023/06/25 10:13:44;;;;;;;3.28;2.65;;;27.50;45.50;;;;;;5019036;28;20238;-63
2023/06/25 10:16:17;;;;;;;3.03;2.42;;;27.50;45.50;;;;;;5018176;28;20141;-63
2023/06/25 10:18:46;;;;;;;3.05;2.75;;;27.60;45.60;;;;;;5042456;28;20083;-64
2023/06/25 10:21:24;;;;;;;3.33;2.55;;;27.60;45.60;;;;;;5043681;28;20116;-65
2023/06/25 10:24:02;;;;;;;3.67;2.97;;;27.60;45.60;;;;;;5042212;28;20203;-67
2023/06/25 10:26:33;;;;;;;3.30;2.88;;;27.60;45.70;;;;;;5039243;28;20123;-65
2023/06/25 10:29:01;;;;;;;3.53;3.08;;;27.60;45.70;;;;;;5043257;28;20328;-65
2023/06/25 10:31:37;;;;;;;3.00;2.60;;;27.60;45.70;;;;;;5050792;28;20393;-63
2023/06/25 10:34:07;;;;;;;3.55;3.08;;;27.60;45.70;;;;;;5048250;28;20044;-62
2023/06/25 10:36:33;;;;;;;3.10;2.80;;;27.60;45.80;;;;;;5050804;28;20037;-64
2023/06/25 10:38:59;;;;;;;3.10;2.55;;;27.60;45.80;;;;;;5028664;28;20041;-65
2023/06/25 10:41:30;;;;;;;3.35;2.80;;;27.60;45.90;;;;;;5042557;28;20041;-65
2023/06/25 10:43:57;;;;;;;3.17;2.88;;;27.70;46.00;;;;;;5039106;28;20136;-63
2023/06/25 10:46:32;;;;;;;3.28;2.92;;;27.60;45.90;;;;;;5045308;28;20136;-61
2023/06/25 10:48:59;;;;;;;3.55;2.80;;;27.70;46.00;;;;;;5038971;28;20041;-65
2023/06/25 10:51:27;;;;;;;3.13;2.83;;;27.70;46.00;;;;;;5040879;28;20129;-66
2023/06/25 10:53:56;;;;;;;2.70;2.50;;;27.70;45.90;;;;;;5032309;28;20044;-65
2023/06/25 10:56:23;;;;;;;3.63;2.70;;;27.70;45.90;;;;;;5042998;28;20124;-63
2023/06/25 10:58:56;;;;;;;2.92;2.67;;;27.70;45.90;;;;;;5022538;28;20069;-62
2023/06/25 11:01:22;;;;;;;3.92;2.97;;;27.70;45.90;;;;;;5043043;28;20068;-68
2023/06/25 11:03:48;;;;;;;3.50;2.83;;;27.70;45.90;;;;;;5047106;28;20021;-69
2023/06/25 11:06:14;;;;;;;2.90;2.60;;;27.70;45.90;;;;;;5045329;28;20432;-68
2023/06/25 11:08:42;;;;;;;3.58;2.80;;;27.80;46.00;;;;;;5045325;28;20100;-67
2023/06/25 11:11:08;;;;;;;3.17;2.88;;;27.80;46.00;;;;;;5030822;28;20033;-67
2023/06/25 11:13:34;;;;;;;3.17;2.58;;;27.80;46.00;;;;;;5045094;28;20062;-67
2023/06/25 11:16:00;;;;;;;3.90;3.13;;;27.90;46.00;;;;;;5043777;28;20044;-69
2023/06/25 11:18:26;;;;;;;3.63;2.60;;;28.00;45.90;;;;;;5042490;28;20086;-68
2023/06/25 11:20:53;;;;;;;3.03;2.72;;;28.10;45.90;;;;;;5049338;28;20113;-68
2023/06/25 11:23:19;;;;;;;3.03;2.50;;;28.20;45.70;;;;;;5050689;28;20328;-68
2023/06/25 11:25:46;;;;;;;3.25;2.88;;;28.30;45.60;;;;;;5050289;28;20087;-69
2023/06/25 11:28:15;;;;;;;3.17;2.85;;;28.50;45.50;;;;;;5047105;28;20033;-69
2023/06/25 11:30:45;;;;;;;3.40;2.40;;;28.60;45.40;;;;;;5017126;28;20032;-66
2023/06/25 11:33:17;;;;;;;3.25;2.15;;;28.70;45.20;;;;;;5039360;28;20440;-67
2023/06/25 11:35:52;;;;;;;2.65;2.40;;;28.80;45.00;;;;;;5017453;28;20037;-70
2023/06/25 11:38:28;;;;;;;2.75;2.40;;;28.90;45.00;;;;;;5037769;28;20115;-68
2023/06/25 11:40:57;;;;;;;3.33;2.67;;;29.00;44.80;;;;;;5038695;28;20045;-65
2023/06/25 11:43:23;;;;;;;2.83;2.28;;;29.10;44.70;;;;;;5041417;28;20151;-68
2023/06/25 11:45:49;;;;;;;3.25;2.72;;;29.20;44.60;;;;;;5038263;28;20120;-66
2023/06/25 11:48:16;;;;;;;3.70;3.30;;;29.20;44.60;;;;;;5030198;28;20030;-64
2023/06/25 11:50:44;;;;;;;3.80;3.22;;;29.10;42.70;;;;;;5036786;28;20093;-65
2023/06/25 11:53:10;;;;;;;4.00;3.45;;;28.70;41.90;;;;;;5043685;28;20070;-65
2023/06/25 11:55:36;;;;;;;3.75;3.25;;;28.10;41.90;;;;;;5020644;28;20040;-65
2023/06/25 11:58:09;;;;;;;3.70;3.28;;;27.50;42.10;;;;;;5039326;28;20333;-62
2023/06/25 12:00:35;;;;;;;6.70;5.38;;;27.00;42.40;;;;;;5048518;28;20420;-64
2023/06/25 12:03:01;;;;;;;23.02;10.75;;;26.50;43.30;;;;;;5037652;28;20038;-64
2023/06/25 12:05:27;;;;;;;21.08;11.98;;;26.20;45.60;;;;;;5044789;28;20364;-62
2023/06/25 12:07:53;;;;;;;30.85;13.48;;;25.80;47.10;;;;;;5035321;28;20091;-64
2023/06/25 12:10:19;;;;;;;47.92;23.80;;;25.50;48.60;;;;;;5043962;28;20097;-66
2023/06/25 12:12:45;;;;;;;46.30;23.60;;;25.30;49.40;;;;;;5045027;28;20039;-66
2023/06/25 12:15:12;;;;;;;34.65;19.17;;;25.10;49.50;;;;;;5042788;28;21398;-66
2023/06/25 12:17:38;;;;;;;42.72;18.58;;;24.90;49.50;;;;;;5043721;28;20103;-65
2023/06/25 12:20:04;;;;;;;45.33;19.77;;;24.70;48.70;;;;;;5039234;28;20040;-68
2023/06/25 12:22:30;;;;;;;34.58;16.85;;;24.60;49.40;;;;;;5031815;28;20056;-67
2023/06/25 12:24:56;;;;;;;34.83;15.82;;;24.40;49.10;;;;;;5050594;28;20104;-65
2023/06/25 12:27:22;;;;;;;37.00;17.05;;;24.30;49.90;;;;;;5025280;28;20109;-67
2023/06/25 12:29:48;;;;;;;35.83;16.65;;;24.20;56.50;;;;;;5046127;28;20039;-64
2023/06/25 12:32:13;;;;;;;30.38;15.00;;;24.20;59.40;;;;;;5040953;28;20051;-68
2023/06/25 12:34:39;;;;;;;30.85;15.10;;;24.30;62.40;;;;;;5040838;28;20087;-66
2023/06/25 12:37:05;;;;;;;33.85;18.60;;;24.40;65.20;;;;;;5043126;28;20032;-66
2023/06/25 12:39:31;;;;;;;46.47;30.65;;;24.60;66.60;;;;;;5022634;28;20457;-63
2023/06/25 12:41:57;;;;;;;49.60;27.48;;;24.70;66.80;;;;;;5040452;28;20127;-64
2023/06/25 12:44:23;;;;;;;33.78;20.38;;;24.80;66.00;;;;;;5039262;28;20041;-63